• Join FlightAware (Why Join?)
  • Login
  • US Flag 
07:40PM EDT


 

Airport Tracker/Info


-or-


 

Live Flight TrackerFlight Track Log ✈ RPA3436 ✈ 02-Jul-2013 ✈ KDCA - KALB

Flight Track Log - Related Links

Times and Time Zones

All times are in EDT time to prevent confusion due to time zone crossing. See the RPA3436 flight status page for this flight to view local times or setup timezone preferences in your user account.

Time Position Orientation Groundspeed Altitude Reporting Facility
EDT Latitude Longitude Course Direction KTS MPH feet Rate Location/Type
10:13AM 38.8000 -77.0333 90° East 159 183 2,300  Level Potomac TRACON
10:14AM 38.7667 -76.9833 131° Southeast 261 300 4,800 2,880 Climbing Potomac TRACON
10:15AM 38.8167 -76.9167 46° Northeast 313 360 8,100 3,180 Climbing Potomac TRACON
10:16AM 38.8692 -76.8633 38° Northeast 332 382 10,200 2,820 Climbing Washington Center
10:17AM 38.9428 -76.7819 41° Northeast 337 388 12,900 2,640 Climbing Washington Center
10:18AM 38.9939 -76.6681 60° Northeast 342 394 15,600 2,400 Climbing Washington Center
10:19AM 39.1167 -76.2766 90° East  Level FlightAware Approximate
10:19AM 39.0367 -76.5483 65° Northeast 354 407 17,800  Level Washington Center
10:20AM 39.0836 -76.4178 65° Northeast 373 429 19,900 2,040 Climbing Washington Center
10:21AM 39.1303 -76.2819 66° East 390 449 22,000 1,560 Climbing Washington Center
10:22AM 39.1600 -76.1511 74° East 405 466 23,000 600 Climbing Washington Center
10:23AM 39.1794 -76.0039 80° East 411 473 23,200 840 Climbing Washington Center
10:24AM 39.2131 -75.8594 73° East 416 479 24,700 1,560 Climbing Washington Center
10:25AM 39.3008 -75.7444 45° Northeast 419 482 26,400 1,620 Climbing Washington Center
10:26AM 39.4072 -75.6050 45° Northeast 434 499 28,300 1,680 Climbing Washington Center
10:27AM 39.4947 -75.4919 45° Northeast 440 506 30,100 1,500 Climbing Washington Center
10:29AM 39.6869 -75.2383 45° Northeast 451 519 33,000 900 Climbing New York Center
10:30AM 39.7667 -75.1164 50° Northeast 440 506 33,000  Level New York Center
10:31AM 39.8436 -75.0103 47° Northeast 446 513 33,000  Level New York Center
10:32AM 39.9247 -74.8933 48° Northeast 446 513 33,000  Level New York Center
10:33AM 40.0081 -74.7736 48° Northeast 441 507 33,000  Level New York Center
10:34AM 40.1000 -74.6433 47° Northeast 441 507 33,000  Level New York Center
10:35AM 40.1722 -74.5386 48° Northeast 435 501 33,000  Level New York Center
10:36AM 40.2653 -74.4294 42° Northeast 441 507 33,000  Level New York Center
10:37AM 40.3600 -74.3283 39° Northeast 436 502 33,000 -600 Level New York Center
10:38AM 40.4547 -74.2267 39° Northeast 436 502 31,900 -2,100 Descending New York Center
10:39AM 40.5494 -74.1222 40° Northeast 436 502 28,900 -3,000 Descending New York Center
10:40AM 40.6461 -74.0175 39° Northeast 436 502 25,900 -1,740 Descending New York Center
10:42AM 40.8353 -73.8172 39° Northeast 431 496 24,000 -900 Descending Boston Center
10:43AM 40.9219 -73.7092 43° Northeast 426 490 23,500 -540 Descending Boston Center
10:44AM 41.0086 -73.6036 43° Northeast 426 490 23,000 -300 Descending Boston Center
10:45AM 41.0972 -73.4950 43° Northeast 421 484 23,000  Level Boston Center
10:46AM 41.1836 -73.3861 43° Northeast 421 484 23,000 -540 Level Boston Center
10:47AM 41.2719 -73.2797 42° Northeast 421 484 22,000 -1,080 Descending Boston Center
10:48AM 41.3786 -73.2258 21° North 408 470 20,900 -1,260 Descending Boston Center
10:49AM 41.4825 -73.2603 346° North 374 430 19,500 -1,500 Descending Boston Center
10:50AM 41.5883 -73.3061 342° North 367 422 18,000 -2,040 Descending Boston Center
10:51AM 41.6819 -73.3461 342° North 367 422 15,500 -2,400 Descending Boston Center
10:52AM 41.7733 -73.3836 343° North 354 407 13,200 -1,740 Descending Boston Center
10:53AM 41.8356 -73.4097 343° North 341 392 12,100 -1,320 Descending Boston Center
10:54AM 41.9208 -73.4472 342° North 340 391 11,000 -660 Descending Boston Center
10:55AM 42.0161 -73.4881 342° North 328 377 11,000  Level Boston Center
10:56AM 42.1158 -73.5261 344° North 325 374 11,000  Level Boston Center
10:57AM 42.1953 -73.5133 North 338 389 11,000 -720 Level Boston Center
10:58AM 42.2828 -73.5064 North 311 358 9,800 -1,560 Descending Boston Center
10:59AM 42.3469 -73.5694 324° Northwest 276 318 7,900 -1,860 Descending Boston Center
11:00AM 42.4044 -73.6322 321° Northwest 276 318 6,100 -1,800 Descending Boston Center
11:01AM 42.4664 -73.7008 321° Northwest 277 319 4,300 -1,440 Descending Boston Center
11:02AM 42.5178 -73.7583 320° Northwest 265 305 3,400 -900 Descending Boston Center
11:03AM 42.5714 -73.8047 327° Northwest 228 262 2,600 -840 Descending Boston Center